sensor_id;sensor_type;location;lat;lon;timestamp;P1;durP1;ratioP1;P2;durP2;ratioP2
66487;SDS011;53304;54.550;18.526;2023-10-13T00:02:03;2.17;;;0.90;;
66487;SDS011;53304;54.550;18.526;2023-10-13T00:04:30;2.65;;;0.80;;
66487;SDS011;53304;54.550;18.526;2023-10-13T00:07:03;1.92;;;0.65;;
66487;SDS011;53304;54.550;18.526;2023-10-13T00:09:34;2.25;;;0.90;;
66487;SDS011;53304;54.550;18.526;2023-10-13T00:12:05;1.35;;;0.60;;
66487;SDS011;53304;54.550;18.526;2023-10-13T00:14:40;1.95;;;0.80;;
66487;SDS011;53304;54.550;18.526;2023-10-13T00:17:13;3.42;;;0.77;;
66487;SDS011;53304;54.550;18.526;2023-10-13T00:19:45;2.47;;;0.70;;
66487;SDS011;53304;54.550;18.526;2023-10-13T00:22:14;1.88;;;0.80;;
66487;SDS011;53304;54.550;18.526;2023-10-13T00:24:45;2.47;;;0.90;;
66487;SDS011;53304;54.550;18.526;2023-10-13T00:27:14;2.33;;;0.90;;
66487;SDS011;53304;54.550;18.526;2023-10-13T00:29:55;1.77;;;0.60;;
66487;SDS011;53304;54.550;18.526;2023-10-13T00:32:44;3.28;;;0.80;;
66487;SDS011;53304;54.550;18.526;2023-10-13T00:35:17;2.35;;;0.60;;
66487;SDS011;53304;54.550;18.526;2023-10-13T00:38:00;2.20;;;0.80;;
66487;SDS011;53304;54.550;18.526;2023-10-13T00:40:29;2.90;;;0.88;;
66487;SDS011;53304;54.550;18.526;2023-10-13T00:42:59;1.92;;;0.70;;
66487;SDS011;53304;54.550;18.526;2023-10-13T00:45:45;2.33;;;0.80;;
66487;SDS011;53304;54.550;18.526;2023-10-13T00:48:28;2.10;;;0.90;;
66487;SDS011;53304;54.550;18.526;2023-10-13T00:50:57;3.15;;;1.00;;
66487;SDS011;53304;54.550;18.526;2023-10-13T00:53:43;1.55;;;0.70;;
66487;SDS011;53304;54.550;18.526;2023-10-13T00:56:20;2.75;;;0.93;;
66487;SDS011;53304;54.550;18.526;2023-10-13T00:58:46;2.40;;;0.70;;
66487;SDS011;53304;54.550;18.526;2023-10-13T01:01:20;2.13;;;0.70;;
66487;SDS011;53304;54.550;18.526;2023-10-13T01:03:53;1.75;;;0.70;;
66487;SDS011;53304;54.550;18.526;2023-10-13T01:06:24;2.38;;;0.75;;
66487;SDS011;53304;54.550;18.526;2023-10-13T01:08:57;3.38;;;0.98;;
66487;SDS011;53304;54.550;18.526;2023-10-13T01:11:25;3.95;;;0.70;;
66487;SDS011;53304;54.550;18.526;2023-10-13T01:13:56;3.38;;;1.00;;
66487;SDS011;53304;54.550;18.526;2023-10-13T01:16:27;2.83;;;0.80;;
66487;SDS011;53304;54.550;18.526;2023-10-13T01:18:55;2.33;;;0.85;;
66487;SDS011;53304;54.550;18.526;2023-10-13T01:21:25;2.17;;;0.80;;
66487;SDS011;53304;54.550;18.526;2023-10-13T01:23:52;2.45;;;0.80;;
66487;SDS011;53304;54.550;18.526;2023-10-13T01:26:22;2.45;;;0.60;;
66487;SDS011;53304;54.550;18.526;2023-10-13T01:28:56;4.10;;;0.80;;
66487;SDS011;53304;54.550;18.526;2023-10-13T01:31:22;1.95;;;0.80;;
66487;SDS011;53304;54.550;18.526;2023-10-13T01:34:04;2.55;;;0.90;;
66487;SDS011;53304;54.550;18.526;2023-10-13T01:36:30;3.40;;;0.90;;
66487;SDS011;53304;54.550;18.526;2023-10-13T01:39:00;2.22;;;0.65;;
66487;SDS011;53304;54.550;18.526;2023-10-13T01:41:26;1.05;;;0.57;;
66487;SDS011;53304;54.550;18.526;2023-10-13T01:43:58;1.38;;;0.80;;
66487;SDS011;53304;54.550;18.526;2023-10-13T01:46:26;2.30;;;0.90;;
66487;SDS011;53304;54.550;18.526;2023-10-13T01:48:53;1.88;;;0.90;;
66487;SDS011;53304;54.550;18.526;2023-10-13T01:51:19;1.75;;;0.70;;
66487;SDS011;53304;54.550;18.526;2023-10-13T01:53:50;1.77;;;0.88;;
66487;SDS011;53304;54.550;18.526;2023-10-13T01:56:21;2.67;;;1.00;;
66487;SDS011;53304;54.550;18.526;2023-10-13T01:58:48;2.20;;;0.75;;
66487;SDS011;53304;54.550;18.526;2023-10-13T02:01:14;2.00;;;0.80;;
66487;SDS011;53304;54.550;18.526;2023-10-13T02:03:51;1.50;;;0.68;;
66487;SDS011;53304;54.550;18.526;2023-10-13T02:06:26;1.95;;;0.80;;
66487;SDS011;53304;54.550;18.526;2023-10-13T02:08:57;3.25;;;1.10;;
66487;SDS011;53304;54.550;18.526;2023-10-13T02:11:41;2.58;;;0.95;;
66487;SDS011;53304;54.550;18.526;2023-10-13T02:14:11;1.45;;;0.90;;
66487;SDS011;53304;54.550;18.526;2023-10-13T02:16:41;3.03;;;1.00;;
66487;SDS011;53304;54.550;18.526;2023-10-13T02:19:14;1.70;;;0.70;;
66487;SDS011;53304;54.550;18.526;2023-10-13T02:21:44;2.53;;;0.73;;
66487;SDS011;53304;54.550;18.526;2023-10-13T02:24:26;2.33;;;0.90;;
66487;SDS011;53304;54.550;18.526;2023-10-13T02:26:55;1.60;;;0.77;;
66487;SDS011;53304;54.550;18.526;2023-10-13T02:29:27;1.40;;;0.73;;
66487;SDS011;53304;54.550;18.526;2023-10-13T02:31:57;2.22;;;0.98;;
66487;SDS011;53304;54.550;18.526;2023-10-13T02:34:22;2.28;;;0.80;;
66487;SDS011;53304;54.550;18.526;2023-10-13T02:36:48;2.22;;;0.88;;
66487;SDS011;53304;54.550;18.526;2023-10-13T02:39:19;3.35;;;1.10;;
66487;SDS011;53304;54.550;18.526;2023-10-13T02:41:54;2.03;;;0.82;;
66487;SDS011;53304;54.550;18.526;2023-10-13T02:44:21;3.22;;;0.82;;
66487;SDS011;53304;54.550;18.526;2023-10-13T02:46:55;2.47;;;0.93;;
66487;SDS011;53304;54.550;18.526;2023-10-13T02:49:25;2.75;;;0.90;;
66487;SDS011;53304;54.550;18.526;2023-10-13T02:51:56;2.13;;;0.98;;
66487;SDS011;53304;54.550;18.526;2023-10-13T02:54:24;1.85;;;0.80;;
66487;SDS011;53304;54.550;18.526;2023-10-13T02:56:55;3.03;;;0.90;;
66487;SDS011;53304;54.550;18.526;2023-10-13T02:59:31;1.27;;;0.90;;
66487;SDS011;53304;54.550;18.526;2023-10-13T03:02:05;2.85;;;0.85;;
66487;SDS011;53304;54.550;18.526;2023-10-13T03:04:55;3.67;;;1.00;;
66487;SDS011;53304;54.550;18.526;2023-10-13T03:07:38;3.25;;;0.95;;
66487;SDS011;53304;54.550;18.526;2023-10-13T03:10:09;3.75;;;1.20;;
66487;SDS011;53304;54.550;18.526;2023-10-13T03:12:35;3.08;;;1.00;;
66487;SDS011;53304;54.550;18.526;2023-10-13T03:15:06;2.15;;;0.93;;
66487;SDS011;53304;54.550;18.526;2023-10-13T03:17:40;2.17;;;1.00;;
66487;SDS011;53304;54.550;18.526;2023-10-13T03:20:18;1.95;;;0.90;;
66487;SDS011;53304;54.550;18.526;2023-10-13T03:22:52;1.92;;;0.90;;
66487;SDS011;53304;54.550;18.526;2023-10-13T03:25:22;2.28;;;0.93;;
66487;SDS011;53304;54.550;18.526;2023-10-13T03:27:53;1.75;;;0.70;;
66487;SDS011;53304;54.550;18.526;2023-10-13T03:30:21;2.45;;;0.80;;
66487;SDS011;53304;54.550;18.526;2023-10-13T03:32:55;2.53;;;1.02;;
66487;SDS011;53304;54.550;18.526;2023-10-13T03:35:23;1.70;;;0.75;;
66487;SDS011;53304;54.550;18.526;2023-10-13T03:37:49;2.90;;;0.85;;
66487;SDS011;53304;54.550;18.526;2023-10-13T03:40:19;2.00;;;0.90;;
66487;SDS011;53304;54.550;18.526;2023-10-13T03:42:44;1.60;;;0.80;;
66487;SDS011;53304;54.550;18.526;2023-10-13T03:45:25;1.33;;;0.70;;
66487;SDS011;53304;54.550;18.526;2023-10-13T03:48:04;1.75;;;0.93;;
66487;SDS011;53304;54.550;18.526;2023-10-13T03:50:37;2.20;;;0.80;;
66487;SDS011;53304;54.550;18.526;2023-10-13T03:53:11;3.63;;;1.00;;
66487;SDS011;53304;54.550;18.526;2023-10-13T03:55:38;1.50;;;0.60;;
66487;SDS011;53304;54.550;18.526;2023-10-13T03:58:04;2.70;;;1.00;;
66487;SDS011;53304;54.550;18.526;2023-10-13T04:00:29;2.65;;;0.88;;
66487;SDS011;53304;54.550;18.526;2023-10-13T04:02:58;1.50;;;0.63;;
66487;SDS011;53304;54.550;18.526;2023-10-13T04:05:27;2.00;;;0.90;;
66487;SDS011;53304;54.550;18.526;2023-10-13T04:08:11;1.77;;;0.73;;
66487;SDS011;53304;54.550;18.526;2023-10-13T04:10:48;2.45;;;0.90;;
66487;SDS011;53304;54.550;18.526;2023-10-13T04:13:16;7.43;;;1.23;;
66487;SDS011;53304;54.550;18.526;2023-10-13T04:16:03;2.13;;;0.85;;
66487;SDS011;53304;54.550;18.526;2023-10-13T04:18:47;1.73;;;0.70;;
66487;SDS011;53304;54.550;18.526;2023-10-13T04:21:24;1.65;;;0.80;;
66487;SDS011;53304;54.550;18.526;2023-10-13T04:24:22;1.73;;;0.85;;
66487;SDS011;53304;54.550;18.526;2023-10-13T04:26:47;4.82;;;0.88;;
66487;SDS011;53304;54.550;18.526;2023-10-13T04:29:35;2.83;;;0.90;;
66487;SDS011;53304;54.550;18.526;2023-10-13T04:32:21;2.08;;;0.90;;
66487;SDS011;53304;54.550;18.526;2023-10-13T04:35:03;2.47;;;1.00;;
66487;SDS011;53304;54.550;18.526;2023-10-13T04:37:43;1.42;;;0.85;;
66487;SDS011;53304;54.550;18.526;2023-10-13T04:40:15;1.20;;;0.70;;
66487;SDS011;53304;54.550;18.526;2023-10-13T04:42:51;1.60;;;0.90;;
66487;SDS011;53304;54.550;18.526;2023-10-13T04:45:25;1.15;;;0.60;;
66487;SDS011;53304;54.550;18.526;2023-10-13T04:47:55;1.60;;;0.70;;
66487;SDS011;53304;54.550;18.526;2023-10-13T04:50:43;1.95;;;0.90;;
66487;SDS011;53304;54.550;18.526;2023-10-13T04:56:00;3.03;;;0.90;;
66487;SDS011;53304;54.550;18.526;2023-10-13T04:58:31;2.22;;;0.70;;
66487;SDS011;53304;54.550;18.526;2023-10-13T05:00:59;2.03;;;0.80;;
66487;SDS011;53304;54.550;18.526;2023-10-13T05:03:48;3.95;;;1.13;;
66487;SDS011;53304;54.550;18.526;2023-10-13T05:06:32;2.92;;;0.90;;
66487;SDS011;53304;54.550;18.526;2023-10-13T05:09:07;2.65;;;1.08;;
66487;SDS011;53304;54.550;18.526;2023-10-13T05:11:53;3.58;;;0.90;;
66487;SDS011;53304;54.550;18.526;2023-10-13T05:14:42;10.02;;;1.50;;
66487;SDS011;53304;54.550;18.526;2023-10-13T05:17:29;12.00;;;1.83;;
66487;SDS011;53304;54.550;18.526;2023-10-13T05:20:13;4.90;;;1.30;;
66487;SDS011;53304;54.550;18.526;2023-10-13T05:23:02;10.25;;;1.02;;
66487;SDS011;53304;54.550;18.526;2023-10-13T05:25:48;4.05;;;1.00;;
66487;SDS011;53304;54.550;18.526;2023-10-13T05:28:32;6.78;;;1.15;;
66487;SDS011;53304;54.550;18.526;2023-10-13T05:31:16;2.55;;;0.98;;
66487;SDS011;53304;54.550;18.526;2023-10-13T05:34:03;4.35;;;1.13;;
66487;SDS011;53304;54.550;18.526;2023-10-13T05:36:47;2.80;;;0.80;;
66487;SDS011;53304;54.550;18.526;2023-10-13T05:39:33;23.75;;;1.52;;
66487;SDS011;53304;54.550;18.526;2023-10-13T05:42:20;9.80;;;1.25;;
66487;SDS011;53304;54.550;18.526;2023-10-13T05:45:06;7.85;;;1.95;;
66487;SDS011;53304;54.550;18.526;2023-10-13T05:47:34;8.25;;;1.80;;
66487;SDS011;53304;54.550;18.526;2023-10-13T05:50:06;4.82;;;1.42;;
66487;SDS011;53304;54.550;18.526;2023-10-13T05:52:58;11.27;;;1.75;;
66487;SDS011;53304;54.550;18.526;2023-10-13T05:55:28;10.27;;;1.83;;
66487;SDS011;53304;54.550;18.526;2023-10-13T05:58:13;7.15;;;1.70;;
66487;SDS011;53304;54.550;18.526;2023-10-13T06:00:58;5.82;;;1.88;;
66487;SDS011;53304;54.550;18.526;2023-10-13T06:03:44;7.72;;;2.17;;
66487;SDS011;53304;54.550;18.526;2023-10-13T06:06:28;4.80;;;1.65;;
66487;SDS011;53304;54.550;18.526;2023-10-13T06:09:12;4.53;;;1.50;;
66487;SDS011;53304;54.550;18.526;2023-10-13T06:11:56;10.30;;;2.17;;
66487;SDS011;53304;54.550;18.526;2023-10-13T06:14:40;5.47;;;1.88;;
66487;SDS011;53304;54.550;18.526;2023-10-13T06:17:24;5.75;;;1.88;;
66487;SDS011;53304;54.550;18.526;2023-10-13T06:20:08;5.07;;;1.90;;
66487;SDS011;53304;54.550;18.526;2023-10-13T06:22:55;6.45;;;2.10;;
66487;SDS011;53304;54.550;18.526;2023-10-13T06:25:49;8.02;;;2.10;;
66487;SDS011;53304;54.550;18.526;2023-10-13T06:28:36;6.72;;;2.05;;
66487;SDS011;53304;54.550;18.526;2023-10-13T06:31:11;6.20;;;1.90;;
66487;SDS011;53304;54.550;18.526;2023-10-13T06:33:51;5.13;;;2.15;;
66487;SDS011;53304;54.550;18.526;2023-10-13T06:36:20;7.20;;;2.20;;
66487;SDS011;53304;54.550;18.526;2023-10-13T06:38:48;5.57;;;2.28;;
66487;SDS011;53304;54.550;18.526;2023-10-13T06:41:42;4.68;;;2.10;;
66487;SDS011;53304;54.550;18.526;2023-10-13T06:44:12;5.57;;;2.03;;
66487;SDS011;53304;54.550;18.526;2023-10-13T06:46:41;5.63;;;2.17;;
66487;SDS011;53304;54.550;18.526;2023-10-13T06:49:09;5.13;;;2.13;;
66487;SDS011;53304;54.550;18.526;2023-10-13T06:51:40;6.20;;;2.10;;
66487;SDS011;53304;54.550;18.526;2023-10-13T06:54:06;4.85;;;2.22;;
66487;SDS011;53304;54.550;18.526;2023-10-13T06:56:44;5.30;;;2.10;;
66487;SDS011;53304;54.550;18.526;2023-10-13T06:59:12;6.35;;;2.30;;
66487;SDS011;53304;54.550;18.526;2023-10-13T07:01:39;5.55;;;2.47;;
66487;SDS011;53304;54.550;18.526;2023-10-13T07:04:11;7.95;;;2.28;;
66487;SDS011;53304;54.550;18.526;2023-10-13T07:06:41;4.35;;;1.85;;
66487;SDS011;53304;54.550;18.526;2023-10-13T07:09:15;5.63;;;2.53;;
66487;SDS011;53304;54.550;18.526;2023-10-13T07:12:02;4.95;;;2.22;;
66487;SDS011;53304;54.550;18.526;2023-10-13T07:14:32;4.50;;;2.10;;
66487;SDS011;53304;54.550;18.526;2023-10-13T07:17:03;4.20;;;2.38;;
66487;SDS011;53304;54.550;18.526;2023-10-13T07:19:30;6.07;;;2.75;;
66487;SDS011;53304;54.550;18.526;2023-10-13T07:21:57;4.93;;;2.20;;
66487;SDS011;53304;54.550;18.526;2023-10-13T07:24:43;5.18;;;2.25;;
66487;SDS011;53304;54.550;18.526;2023-10-13T07:27:10;5.90;;;2.60;;
66487;SDS011;53304;54.550;18.526;2023-10-13T07:29:45;4.32;;;2.10;;
66487;SDS011;53304;54.550;18.526;2023-10-13T07:32:13;7.18;;;2.55;;
66487;SDS011;53304;54.550;18.526;2023-10-13T07:34:49;8.95;;;3.03;;
66487;SDS011;53304;54.550;18.526;2023-10-13T07:37:17;5.80;;;2.50;;
66487;SDS011;53304;54.550;18.526;2023-10-13T07:39:44;19.67;;;4.50;;
66487;SDS011;53304;54.550;18.526;2023-10-13T07:42:09;15.93;;;4.82;;
66487;SDS011;53304;54.550;18.526;2023-10-13T07:44:45;13.00;;;3.95;;
66487;SDS011;53304;54.550;18.526;2023-10-13T07:47:15;9.68;;;3.40;;
66487;SDS011;53304;54.550;18.526;2023-10-13T07:49:47;11.63;;;3.88;;
66487;SDS011;53304;54.550;18.526;2023-10-13T07:52:17;12.40;;;3.38;;
66487;SDS011;53304;54.550;18.526;2023-10-13T07:54:46;9.48;;;3.65;;
66487;SDS011;53304;54.550;18.526;2023-10-13T07:57:14;13.00;;;3.95;;
66487;SDS011;53304;54.550;18.526;2023-10-13T07:59:43;10.73;;;3.42;;
66487;SDS011;53304;54.550;18.526;2023-10-13T08:02:15;9.20;;;3.35;;
66487;SDS011;53304;54.550;18.526;2023-10-13T08:05:00;14.63;;;4.18;;
66487;SDS011;53304;54.550;18.526;2023-10-13T08:07:32;9.73;;;3.50;;
66487;SDS011;53304;54.550;18.526;2023-10-13T08:10:05;9.45;;;3.67;;
66487;SDS011;53304;54.550;18.526;2023-10-13T08:12:35;11.80;;;3.42;;
66487;SDS011;53304;54.550;18.526;2023-10-13T08:15:03;11.05;;;3.65;;
66487;SDS011;53304;54.550;18.526;2023-10-13T08:17:59;11.18;;;3.65;;
66487;SDS011;53304;54.550;18.526;2023-10-13T08:20:33;10.15;;;3.17;;
66487;SDS011;53304;54.550;18.526;2023-10-13T08:23:07;9.10;;;2.80;;
66487;SDS011;53304;54.550;18.526;2023-10-13T08:25:45;13.85;;;3.50;;
66487;SDS011;53304;54.550;18.526;2023-10-13T08:28:29;7.65;;;3.17;;
66487;SDS011;53304;54.550;18.526;2023-10-13T08:31:07;9.32;;;3.20;;
66487;SDS011;53304;54.550;18.526;2023-10-13T08:33:47;11.27;;;3.38;;
66487;SDS011;53304;54.550;18.526;2023-10-13T08:36:16;8.38;;;3.10;;
66487;SDS011;53304;54.550;18.526;2023-10-13T08:38:53;9.98;;;3.17;;
66487;SDS011;53304;54.550;18.526;2023-10-13T08:41:21;9.60;;;3.00;;
66487;SDS011;53304;54.550;18.526;2023-10-13T08:43:50;10.32;;;3.20;;
66487;SDS011;53304;54.550;18.526;2023-10-13T08:46:16;14.18;;;3.72;;
66487;SDS011;53304;54.550;18.526;2023-10-13T08:49:24;11.32;;;3.00;;
66487;SDS011;53304;54.550;18.526;2023-10-13T08:51:54;12.82;;;3.30;;
66487;SDS011;53304;54.550;18.526;2023-10-13T08:54:51;8.98;;;3.05;;
66487;SDS011;53304;54.550;18.526;2023-10-13T08:57:37;7.97;;;2.90;;
66487;SDS011;53304;54.550;18.526;2023-10-13T09:00:08;10.10;;;3.13;;
66487;SDS011;53304;54.550;18.526;2023-10-13T09:02:57;8.00;;;2.40;;
66487;SDS011;53304;54.550;18.526;2023-10-13T09:05:45;6.18;;;2.50;;
66487;SDS011;53304;54.550;18.526;2023-10-13T09:08:31;9.88;;;2.70;;
66487;SDS011;53304;54.550;18.526;2023-10-13T09:11:18;9.70;;;3.20;;
66487;SDS011;53304;54.550;18.526;2023-10-13T09:13:51;7.90;;;3.10;;
66487;SDS011;53304;54.550;18.526;2023-10-13T09:16:17;8.50;;;3.42;;
66487;SDS011;53304;54.550;18.526;2023-10-13T09:19:08;9.68;;;2.92;;
66487;SDS011;53304;54.550;18.526;2023-10-13T09:21:40;9.18;;;3.20;;
66487;SDS011;53304;54.550;18.526;2023-10-13T09:24:09;9.45;;;2.70;;
66487;SDS011;53304;54.550;18.526;2023-10-13T09:26:58;10.00;;;3.50;;
66487;SDS011;53304;54.550;18.526;2023-10-13T09:29:30;14.30;;;4.03;;
66487;SDS011;53304;54.550;18.526;2023-10-13T09:32:04;18.17;;;4.30;;
66487;SDS011;53304;54.550;18.526;2023-10-13T09:34:36;12.75;;;3.83;;
66487;SDS011;53304;54.550;18.526;2023-10-13T09:37:05;11.15;;;3.80;;
66487;SDS011;53304;54.550;18.526;2023-10-13T09:39:36;12.68;;;4.20;;
66487;SDS011;53304;54.550;18.526;2023-10-13T09:42:06;11.05;;;3.70;;
66487;SDS011;53304;54.550;18.526;2023-10-13T09:44:35;11.45;;;3.90;;
66487;SDS011;53304;54.550;18.526;2023-10-13T09:47:05;11.35;;;3.88;;
66487;SDS011;53304;54.550;18.526;2023-10-13T09:49:43;10.48;;;3.90;;
66487;SDS011;53304;54.550;18.526;2023-10-13T09:52:18;11.55;;;3.65;;
66487;SDS011;53304;54.550;18.526;2023-10-13T09:54:48;14.90;;;4.35;;
66487;SDS011;53304;54.550;18.526;2023-10-13T09:57:26;17.25;;;3.72;;
66487;SDS011;53304;54.550;18.526;2023-10-13T10:00:06;17.58;;;3.70;;
66487;SDS011;53304;54.550;18.526;2023-10-13T10:05:26;14.57;;;3.60;;
66487;SDS011;53304;54.550;18.526;2023-10-13T10:07:57;11.68;;;3.10;;
66487;SDS011;53304;54.550;18.526;2023-10-13T10:10:51;10.40;;;2.95;;
66487;SDS011;53304;54.550;18.526;2023-10-13T10:13:47;10.32;;;3.30;;
66487;SDS011;53304;54.550;18.526;2023-10-13T10:16:33;8.50;;;2.80;;
66487;SDS011;53304;54.550;18.526;2023-10-13T10:19:14;10.07;;;3.22;;
66487;SDS011;53304;54.550;18.526;2023-10-13T10:21:46;8.65;;;2.53;;
66487;SDS011;53304;54.550;18.526;2023-10-13T10:24:14;9.00;;;2.95;;
66487;SDS011;53304;54.550;18.526;2023-10-13T10:26:58;9.48;;;2.67;;
66487;SDS011;53304;54.550;18.526;2023-10-13T10:29:24;9.25;;;2.65;;
66487;SDS011;53304;54.550;18.526;2023-10-13T10:31:49;7.80;;;2.72;;
66487;SDS011;53304;54.550;18.526;2023-10-13T10:34:16;7.45;;;2.42;;
66487;SDS011;53304;54.550;18.526;2023-10-13T10:36:54;9.63;;;2.75;;
66487;SDS011;53304;54.550;18.526;2023-10-13T10:39:33;7.47;;;2.42;;
66487;SDS011;53304;54.550;18.526;2023-10-13T10:42:15;8.75;;;2.45;;
66487;SDS011;53304;54.550;18.526;2023-10-13T10:44:43;4.40;;;1.90;;
66487;SDS011;53304;54.550;18.526;2023-10-13T10:47:15;5.85;;;2.40;;
66487;SDS011;53304;54.550;18.526;2023-10-13T10:50:06;6.18;;;2.40;;
66487;SDS011;53304;54.550;18.526;2023-10-13T10:52:34;10.05;;;2.40;;
66487;SDS011;53304;54.550;18.526;2023-10-13T10:55:04;5.85;;;2.00;;
66487;SDS011;53304;54.550;18.526;2023-10-13T10:57:41;7.43;;;2.28;;
66487;SDS011;53304;54.550;18.526;2023-10-13T11:00:23;6.75;;;2.13;;
66487;SDS011;53304;54.550;18.526;2023-10-13T11:02:58;7.10;;;2.63;;
66487;SDS011;53304;54.550;18.526;2023-10-13T11:05:23;10.40;;;2.93;;
66487;SDS011;53304;54.550;18.526;2023-10-13T11:07:57;8.98;;;2.80;;
66487;SDS011;53304;54.550;18.526;2023-10-13T11:10:25;6.72;;;2.40;;
66487;SDS011;53304;54.550;18.526;2023-10-13T11:12:58;8.23;;;2.60;;
66487;SDS011;53304;54.550;18.526;2023-10-13T11:15:46;9.45;;;2.80;;
66487;SDS011;53304;54.550;18.526;2023-10-13T11:18:12;9.27;;;2.80;;
66487;SDS011;53304;54.550;18.526;2023-10-13T11:20:44;6.40;;;2.25;;
66487;SDS011;53304;54.550;18.526;2023-10-13T11:23:15;7.80;;;2.80;;
66487;SDS011;53304;54.550;18.526;2023-10-13T11:25:56;9.02;;;2.65;;
66487;SDS011;53304;54.550;18.526;2023-10-13T11:28:28;11.18;;;2.80;;
66487;SDS011;53304;54.550;18.526;2023-10-13T11:30:56;7.53;;;2.47;;
66487;SDS011;53304;54.550;18.526;2023-10-13T11:33:42;5.55;;;2.22;;
66487;SDS011;53304;54.550;18.526;2023-10-13T11:36:17;5.88;;;2.10;;
66487;SDS011;53304;54.550;18.526;2023-10-13T11:38:50;7.78;;;2.53;;
66487;SDS011;53304;54.550;18.526;2023-10-13T11:41:16;6.50;;;2.15;;
66487;SDS011;53304;54.550;18.526;2023-10-13T11:43:46;6.32;;;2.28;;
66487;SDS011;53304;54.550;18.526;2023-10-13T11:46:16;4.93;;;2.05;;
66487;SDS011;53304;54.550;18.526;2023-10-13T11:49:03;7.25;;;2.30;;
66487;SDS011;53304;54.550;18.526;2023-10-13T11:51:41;7.18;;;2.58;;
66487;SDS011;53304;54.550;18.526;2023-10-13T11:54:10;5.38;;;2.25;;
66487;SDS011;53304;54.550;18.526;2023-10-13T11:56:46;7.13;;;2.55;;
66487;SDS011;53304;54.550;18.526;2023-10-13T11:59:34;8.02;;;2.20;;
66487;SDS011;53304;54.550;18.526;2023-10-13T12:02:05;5.13;;;2.03;;
66487;SDS011;53304;54.550;18.526;2023-10-13T12:04:52;6.57;;;2.30;;
66487;SDS011;53304;54.550;18.526;2023-10-13T12:10:06;6.45;;;2.40;;
66487;SDS011;53304;54.550;18.526;2023-10-13T12:12:40;6.38;;;2.60;;
66487;SDS011;53304;54.550;18.526;2023-10-13T12:15:10;7.00;;;2.53;;
66487;SDS011;53304;54.550;18.526;2023-10-13T12:17:50;7.50;;;2.30;;
66487;SDS011;53304;54.550;18.526;2023-10-13T12:20:15;7.13;;;2.50;;
66487;SDS011;53304;54.550;18.526;2023-10-13T12:22:59;6.95;;;2.28;;
66487;SDS011;53304;54.550;18.526;2023-10-13T12:25:35;4.93;;;2.17;;
66487;SDS011;53304;54.550;18.526;2023-10-13T12:28:22;5.78;;;2.25;;
66487;SDS011;53304;54.550;18.526;2023-10-13T12:30:52;6.72;;;2.45;;
66487;SDS011;53304;54.550;18.526;2023-10-13T12:33:21;7.75;;;2.63;;
66487;SDS011;53304;54.550;18.526;2023-10-13T12:35:55;4.70;;;2.03;;
66487;SDS011;53304;54.550;18.526;2023-10-13T12:38:30;6.18;;;2.17;;
66487;SDS011;53304;54.550;18.526;2023-10-13T12:41:11;6.72;;;2.20;;
66487;SDS011;53304;54.550;18.526;2023-10-13T12:44:00;5.50;;;1.95;;
66487;SDS011;53304;54.550;18.526;2023-10-13T12:46:44;7.03;;;2.30;;
66487;SDS011;53304;54.550;18.526;2023-10-13T12:49:33;5.78;;;2.40;;
66487;SDS011;53304;54.550;18.526;2023-10-13T12:52:03;4.53;;;2.20;;
66487;SDS011;53304;54.550;18.526;2023-10-13T12:54:32;5.15;;;2.28;;
66487;SDS011;53304;54.550;18.526;2023-10-13T12:57:00;7.68;;;2.70;;
66487;SDS011;53304;54.550;18.526;2023-10-13T12:59:33;5.45;;;2.00;;
66487;SDS011;53304;54.550;18.526;2023-10-13T13:01:59;6.05;;;2.65;;
66487;SDS011;53304;54.550;18.526;2023-10-13T13:04:32;6.05;;;2.30;;
66487;SDS011;53304;54.550;18.526;2023-10-13T13:07:01;6.30;;;2.35;;
66487;SDS011;53304;54.550;18.526;2023-10-13T13:09:30;4.90;;;2.20;;
66487;SDS011;53304;54.550;18.526;2023-10-13T13:12:03;5.18;;;2.20;;
66487;SDS011;53304;54.550;18.526;2023-10-13T13:14:31;7.05;;;2.47;;
66487;SDS011;53304;54.550;18.526;2023-10-13T13:16:59;8.13;;;2.63;;
66487;SDS011;53304;54.550;18.526;2023-10-13T13:19:30;9.02;;;2.55;;
66487;SDS011;53304;54.550;18.526;2023-10-13T13:22:02;6.47;;;2.30;;
66487;SDS011;53304;54.550;18.526;2023-10-13T13:24:30;6.22;;;2.20;;
66487;SDS011;53304;54.550;18.526;2023-10-13T13:26:58;7.45;;;2.70;;
66487;SDS011;53304;54.550;18.526;2023-10-13T13:29:30;7.05;;;2.55;;
66487;SDS011;53304;54.550;18.526;2023-10-13T13:31:56;4.88;;;2.20;;
66487;SDS011;53304;54.550;18.526;2023-10-13T13:34:21;6.20;;;2.30;;
66487;SDS011;53304;54.550;18.526;2023-10-13T13:36:47;5.10;;;2.58;;
66487;SDS011;53304;54.550;18.526;2023-10-13T13:39:18;7.22;;;2.60;;
66487;SDS011;53304;54.550;18.526;2023-10-13T13:41:53;5.22;;;2.30;;
66487;SDS011;53304;54.550;18.526;2023-10-13T13:44:22;5.45;;;2.60;;
66487;SDS011;53304;54.550;18.526;2023-10-13T13:47:00;4.50;;;2.50;;
66487;SDS011;53304;54.550;18.526;2023-10-13T13:49:39;5.75;;;2.42;;
66487;SDS011;53304;54.550;18.526;2023-10-13T13:52:08;5.25;;;2.72;;
66487;SDS011;53304;54.550;18.526;2023-10-13T13:54:43;6.63;;;2.60;;
66487;SDS011;53304;54.550;18.526;2023-10-13T13:57:13;4.57;;;2.50;;
66487;SDS011;53304;54.550;18.526;2023-10-13T13:59:43;5.82;;;2.33;;
66487;SDS011;53304;54.550;18.526;2023-10-13T14:02:13;5.13;;;2.60;;
66487;SDS011;53304;54.550;18.526;2023-10-13T14:04:47;6.90;;;2.58;;
66487;SDS011;53304;54.550;18.526;2023-10-13T14:07:18;9.18;;;2.90;;
66487;SDS011;53304;54.550;18.526;2023-10-13T14:09:48;7.57;;;2.95;;
66487;SDS011;53304;54.550;18.526;2023-10-13T14:12:17;7.60;;;3.25;;
66487;SDS011;53304;54.550;18.526;2023-10-13T14:14:55;6.50;;;2.90;;
66487;SDS011;53304;54.550;18.526;2023-10-13T14:17:24;8.93;;;2.95;;
66487;SDS011;53304;54.550;18.526;2023-10-13T14:20:02;9.60;;;2.78;;
66487;SDS011;53304;54.550;18.526;2023-10-13T14:22:40;6.13;;;2.35;;
66487;SDS011;53304;54.550;18.526;2023-10-13T14:25:11;8.18;;;2.67;;
66487;SDS011;53304;54.550;18.526;2023-10-13T14:27:41;7.45;;;2.70;;
66487;SDS011;53304;54.550;18.526;2023-10-13T14:30:09;5.78;;;2.63;;
66487;SDS011;53304;54.550;18.526;2023-10-13T14:35:07;6.70;;;2.83;;
66487;SDS011;53304;54.550;18.526;2023-10-13T14:40:05;7.13;;;2.50;;
66487;SDS011;53304;54.550;18.526;2023-10-13T14:42:36;8.23;;;3.30;;
66487;SDS011;53304;54.550;18.526;2023-10-13T14:45:05;6.28;;;2.55;;
66487;SDS011;53304;54.550;18.526;2023-10-13T14:47:37;6.10;;;2.80;;
66487;SDS011;53304;54.550;18.526;2023-10-13T14:50:04;6.75;;;2.72;;
66487;SDS011;53304;54.550;18.526;2023-10-13T14:52:30;7.80;;;2.83;;
66487;SDS011;53304;54.550;18.526;2023-10-13T14:54:59;6.78;;;2.95;;
66487;SDS011;53304;54.550;18.526;2023-10-13T14:57:34;6.65;;;3.40;;
66487;SDS011;53304;54.550;18.526;2023-10-13T15:00:02;7.00;;;3.00;;
66487;SDS011;53304;54.550;18.526;2023-10-13T15:02:38;6.68;;;3.00;;
66487;SDS011;53304;54.550;18.526;2023-10-13T15:05:13;6.20;;;2.63;;
66487;SDS011;53304;54.550;18.526;2023-10-13T15:07:42;6.70;;;2.67;;
66487;SDS011;53304;54.550;18.526;2023-10-13T15:10:13;5.30;;;2.75;;
66487;SDS011;53304;54.550;18.526;2023-10-13T15:12:42;6.97;;;3.10;;
66487;SDS011;53304;54.550;18.526;2023-10-13T15:15:10;6.50;;;2.90;;
66487;SDS011;53304;54.550;18.526;2023-10-13T15:17:40;6.47;;;3.20;;
66487;SDS011;53304;54.550;18.526;2023-10-13T15:20:08;6.70;;;2.97;;
66487;SDS011;53304;54.550;18.526;2023-10-13T15:22:35;7.13;;;3.20;;
66487;SDS011;53304;54.550;18.526;2023-10-13T15:25:04;9.55;;;3.17;;
66487;SDS011;53304;54.550;18.526;2023-10-13T15:27:49;7.03;;;3.20;;
66487;SDS011;53304;54.550;18.526;2023-10-13T15:30:27;9.98;;;3.92;;